Terminal Aerodrome Forecast
Issued by NWS

Home | Current Version | Previous Version | Text Only | Print | Product List | Glossary On
Versions: 1 2 3 4 5 6 7 8 9 10 11 12 13 14 15 16 17 18 19 20 21
995
FTUS43 KTOP 202332
TAFMHK
TAF
KMHK 202332Z 2100/2124 30005KT 6SM BR OVC013
     FM210300 30003KT 4SM BR OVC011
      TEMPO 2111/2113 1SM BR OVC008
     FM211500 28005KT P6SM BKN040
     FM211800 26004KT P6SM FEW050=

USA.gov is the U.S. government's official web portal to all federal, state and local government web resources and services.